Time;durP1;ratioP1;P1;durP2;ratioP2;P2;SDS_P1;SDS_P2;PMS_P1;PMS_P2;Temp;Humidity;BMP_temperature;BMP_pressure;BME280_temperature;BME280_humidity;BME280_pressure;Samples;Min_cycle;Max_cycle;Signal;HPM_P1;HPM_P2
2024/01/05 00:01:25;;;;;;;4.33;4.03;;;0.20;99.90;;;;;;5113037;28;20451;-73
2024/01/05 00:03:51;;;;;;;3.80;3.50;;;0.20;99.90;;;;;;5073135;28;20889;-76
2024/01/05 00:06:17;;;;;;;3.73;3.43;;;0.20;99.90;;;;;;5072382;28;20492;-78
2024/01/05 00:08:42;;;;;;;4.70;4.20;;;0.10;99.90;;;;;;5073135;28;20554;-74
2024/01/05 00:11:08;;;;;;;6.77;4.17;;;0.00;99.90;;;;;;5072349;28;20229;-77
2024/01/05 00:13:34;;;;;;;4.90;4.40;;;0.00;99.90;;;;;;5074211;28;20626;-78
2024/01/05 00:15:59;;;;;;;4.10;3.80;;;-0.10;99.90;;;;;;5111748;28;20176;-77
2024/01/05 00:18:25;;;;;;;4.00;3.80;;;-0.10;99.90;;;;;;5113561;28;20182;-78
2024/01/05 00:20:51;;;;;;;4.23;3.93;;;-0.20;99.90;;;;;;5113614;28;20169;-72
2024/01/05 00:23:16;;;;;;;4.20;3.93;;;-0.30;99.90;;;;;;5113616;28;20625;-71
2024/01/05 00:25:42;;;;;;;3.83;3.53;;;-0.30;99.90;;;;;;5112750;28;20161;-78
2024/01/05 00:28:08;;;;;;;4.77;4.37;;;-0.30;99.90;;;;;;5117678;28;20260;-78
2024/01/05 00:30:34;;;;;;;4.23;3.93;;;-0.30;99.90;;;;;;5115811;28;20565;-72
2024/01/05 00:33:00;;;;;;;4.78;4.28;;;-0.40;99.90;;;;;;5117468;28;20240;-76
2024/01/05 00:35:26;;;;;;;6.00;4.23;;;-0.50;99.90;;;;;;5099243;28;20645;-72
2024/01/05 00:37:52;;;;;;;4.63;4.23;;;-0.50;99.90;;;;;;5097008;28;20518;-73
2024/01/05 00:40:17;;;;;;;4.50;4.20;;;-0.50;99.90;;;;;;5097077;28;20165;-77
2024/01/05 00:42:43;;;;;;;4.70;4.27;;;-0.50;99.90;;;;;;5096104;28;20264;-71
2024/01/05 00:45:09;;;;;;;4.63;3.83;;;-0.40;99.90;;;;;;5095100;28;20177;-78
2024/01/05 00:47:35;;;;;;;4.55;4.25;;;-0.30;99.90;;;;;;5095501;28;20432;-77
2024/01/05 00:50:01;;;;;;;3.97;3.53;;;-0.30;99.90;;;;;;5096211;28;20177;-77
2024/01/05 00:52:27;;;;;;;4.20;3.90;;;-0.20;99.90;;;;;;5096787;28;20457;-76
2024/01/05 00:54:52;;;;;;;4.97;4.57;;;-0.10;99.90;;;;;;5094939;28;20832;-72
2024/01/05 00:57:18;;;;;;;4.17;3.87;;;0.00;99.90;;;;;;5096809;28;20162;-75
2024/01/05 00:59:44;;;;;;;4.00;3.67;;;0.00;99.90;;;;;;5108414;28;20173;-72
2024/01/05 01:02:09;;;;;;;6.30;4.60;;;0.00;99.90;;;;;;5108056;28;20167;-77
2024/01/05 01:04:35;;;;;;;6.60;4.60;;;0.00;99.90;;;;;;5075432;28;20177;-71
2024/01/05 01:07:01;;;;;;;4.73;4.20;;;0.00;99.90;;;;;;5075738;28;20190;-72
2024/01/05 01:09:26;;;;;;;4.23;3.93;;;0.00;99.90;;;;;;5075187;28;20206;-72
2024/01/05 01:11:52;;;;;;;3.67;3.47;;;0.00;99.90;;;;;;5075135;28;20646;-71
2024/01/05 01:14:18;;;;;;;4.60;4.20;;;0.00;99.90;;;;;;5097759;28;20172;-71
2024/01/05 01:16:44;;;;;;;4.60;4.13;;;0.10;99.90;;;;;;5115932;28;20886;-78
2024/01/05 01:19:10;;;;;;;4.50;4.10;;;0.20;99.90;;;;;;5116676;28;20563;-72
2024/01/05 01:21:35;;;;;;;4.80;4.30;;;0.30;99.90;;;;;;5116803;28;20204;-72
2024/01/05 01:24:01;;;;;;;5.27;4.87;;;0.40;99.90;;;;;;5116674;28;20165;-75
2024/01/05 01:26:27;;;;;;;8.13;4.33;;;0.40;99.90;;;;;;5115058;28;20169;-74
2024/01/05 01:28:53;;;;;;;5.23;4.70;;;0.30;99.90;;;;;;5115462;28;20934;-78
2024/01/05 01:31:19;;;;;;;4.60;4.30;;;0.40;99.90;;;;;;5116353;28;20245;-73
2024/01/05 01:33:44;;;;;;;4.03;3.73;;;0.40;99.90;;;;;;5115442;28;20168;-72
2024/01/05 01:36:10;;;;;;;7.30;4.80;;;0.40;99.90;;;;;;5115510;28;20164;-78
2024/01/05 01:38:36;;;;;;;4.90;4.50;;;0.50;99.90;;;;;;5116118;28;20177;-77
2024/01/05 01:41:02;;;;;;;4.70;4.27;;;0.40;99.90;;;;;;5116413;28;20402;-72
2024/01/05 01:43:28;;;;;;;5.10;3.87;;;0.30;99.90;;;;;;5114498;28;20620;-71
2024/01/05 01:45:59;;;;;;;4.93;4.53;;;0.40;99.90;;;;;;5114073;28;20410;-77
2024/01/05 01:48:26;;;;;;;4.17;3.77;;;0.40;99.90;;;;;;5116140;28;20502;-72
2024/01/05 01:50:55;;;;;;;4.27;3.97;;;0.30;99.90;;;;;;5116095;28;20507;-74
2024/01/05 01:53:23;;;;;;;4.60;4.20;;;0.10;99.90;;;;;;5114867;28;20407;-74
2024/01/05 01:55:50;;;;;;;7.20;4.70;;;0.20;99.90;;;;;;5114569;28;20830;-72
2024/01/05 01:58:21;;;;;;;4.27;3.87;;;0.30;99.90;;;;;;5109459;28;20934;-70
2024/01/05 02:00:47;;;;;;;5.77;5.37;;;0.30;99.90;;;;;;5095109;28;20986;-78
2024/01/05 02:03:14;;;;;;;4.57;4.27;;;0.30;99.90;;;;;;5094965;28;20441;-71
2024/01/05 02:05:41;;;;;;;4.57;4.17;;;0.30;99.90;;;;;;5094631;28;20408;-71
2024/01/05 02:08:07;;;;;;;14.77;4.60;;;0.20;99.90;;;;;;5095398;28;20423;-74
2024/01/05 02:10:33;;;;;;;4.20;3.80;;;0.10;99.90;;;;;;5095264;28;20454;-72
2024/01/05 02:12:59;;;;;;;5.30;4.80;;;0.10;99.90;;;;;;5095671;28;20169;-78
2024/01/05 02:15:26;;;;;;;4.03;3.83;;;0.10;99.90;;;;;;5114875;28;20176;-76
2024/01/05 02:17:51;;;;;;;10.70;4.10;;;0.10;99.90;;;;;;5115101;28;20422;-71
2024/01/05 02:20:18;;;;;;;4.20;3.90;;;0.20;99.90;;;;;;5115331;28;20394;-78
2024/01/05 02:22:49;;;;;;;3.90;3.60;;;0.30;99.90;;;;;;5115512;28;20180;-71
2024/01/05 02:25:14;;;;;;;4.25;3.90;;;0.20;99.90;;;;;;5114068;28;20895;-71
2024/01/05 02:27:40;;;;;;;4.27;3.97;;;0.10;99.90;;;;;;5115263;28;20201;-71
2024/01/05 02:30:06;;;;;;;5.10;4.33;;;0.00;99.90;;;;;;5095974;28;20660;-75
2024/01/05 02:32:32;;;;;;;4.97;4.18;;;0.00;99.90;;;;;;5093529;28;20186;-72
2024/01/05 02:34:57;;;;;;;4.97;4.50;;;0.00;99.90;;;;;;5093448;28;20170;-78
2024/01/05 02:37:23;;;;;;;4.53;4.23;;;0.00;99.90;;;;;;5094656;28;20539;-77
2024/01/05 02:39:49;;;;;;;4.30;3.90;;;0.10;99.90;;;;;;5094850;28;20218;-72
2024/01/05 02:42:14;;;;;;;3.90;3.60;;;0.20;99.90;;;;;;5094777;28;20172;-71
2024/01/05 02:44:40;;;;;;;4.50;4.20;;;0.20;99.90;;;;;;5107346;28;20646;-78
2024/01/05 02:47:06;;;;;;;7.27;3.93;;;0.10;99.90;;;;;;5114940;28;20181;-71
2024/01/05 02:49:31;;;;;;;4.20;3.90;;;0.20;99.90;;;;;;5114514;28;20169;-78
2024/01/05 02:51:57;;;;;;;3.90;3.60;;;0.20;99.90;;;;;;5114963;28;20234;-76
2024/01/05 02:54:23;;;;;;;4.40;4.20;;;0.30;99.90;;;;;;5114168;28;20161;-77
2024/01/05 02:56:49;;;;;;;5.30;4.70;;;0.20;99.90;;;;;;5101390;28;20170;-73
2024/01/05 02:59:15;;;;;;;3.40;3.20;;;0.10;99.90;;;;;;5094083;28;20193;-73
2024/01/05 03:01:41;;;;;;;4.72;4.28;;;0.10;99.90;;;;;;5114843;28;20405;-78
2024/01/05 03:04:07;;;;;;;4.20;3.90;;;0.00;99.90;;;;;;5114815;28;20165;-77
2024/01/05 03:06:33;;;;;;;5.25;4.85;;;-0.10;99.90;;;;;;5112605;28;20174;-79
2024/01/05 03:08:59;;;;;;;4.03;3.80;;;-0.20;99.90;;;;;;5114519;28;20598;-71
2024/01/05 03:11:25;;;;;;;4.28;4.00;;;-0.20;99.90;;;;;;5103613;28;20174;-78
2024/01/05 03:13:51;;;;;;;4.47;4.07;;;-0.20;99.90;;;;;;5077292;28;20230;-77
2024/01/05 03:16:16;;;;;;;4.40;4.00;;;-0.10;99.90;;;;;;5093327;28;20410;-71
2024/01/05 03:18:42;;;;;;;4.70;4.40;;;-0.10;99.90;;;;;;5094093;28;20189;-74
2024/01/05 03:21:09;;;;;;;5.25;4.25;;;0.00;99.90;;;;;;5092755;28;20173;-72
2024/01/05 03:23:34;;;;;;;5.30;4.00;;;-0.10;99.90;;;;;;5094205;28;20180;-72
2024/01/05 03:26:00;;;;;;;4.50;4.20;;;-0.20;99.90;;;;;;5107484;28;20620;-73
2024/01/05 03:28:26;;;;;;;4.80;4.40;;;-0.20;99.90;;;;;;5114199;28;20188;-72
2024/01/05 03:30:52;;;;;;;4.45;4.10;;;-0.20;99.90;;;;;;5092514;28;20212;-75
2024/01/05 03:33:20;;;;;;;6.07;5.57;;;-0.10;99.90;;;;;;5092537;28;20626;-73
2024/01/05 03:35:46;;;;;;;5.35;4.88;;;-0.10;99.90;;;;;;5091627;28;20252;-78
2024/01/05 03:38:11;;;;;;;4.80;4.33;;;-0.20;99.90;;;;;;5093707;28;20272;-73
2024/01/05 03:40:37;;;;;;;5.70;5.00;;;-0.20;99.90;;;;;;5093697;28;20169;-78
2024/01/05 03:43:03;;;;;;;4.97;4.53;;;-0.20;99.90;;;;;;5092618;28;20595;-78
2024/01/05 03:45:29;;;;;;;8.02;5.40;;;-0.20;99.90;;;;;;5071610;28;20180;-71
2024/01/05 03:47:55;;;;;;;7.17;5.50;;;-0.30;99.90;;;;;;5073258;28;20269;-72
2024/01/05 03:50:21;;;;;;;4.23;3.97;;;-0.10;99.90;;;;;;5072767;28;20963;-71
2024/01/05 03:52:46;;;;;;;5.10;4.60;;;-0.10;99.90;;;;;;5073394;28;20176;-71
2024/01/05 03:55:12;;;;;;;4.90;4.50;;;-0.10;99.90;;;;;;5072238;28;20173;-78
2024/01/05 03:57:38;;;;;;;4.50;4.20;;;-0.10;99.90;;;;;;5073240;28;20423;-70
2024/01/05 04:00:04;;;;;;;5.17;4.77;;;0.00;99.90;;;;;;5086828;28;20166;-72
2024/01/05 04:02:30;;;;;;;5.18;4.78;;;0.00;99.90;;;;;;5091620;28;20222;-72
2024/01/05 04:04:56;;;;;;;3.83;3.53;;;-0.10;99.90;;;;;;5092581;28;20182;-75
2024/01/05 04:07:22;;;;;;;5.27;4.87;;;0.00;99.90;;;;;;5092183;28;20199;-73
2024/01/05 04:09:49;;;;;;;4.50;4.10;;;-0.10;99.90;;;;;;5092608;28;20167;-78
2024/01/05 04:12:14;;;;;;;4.25;3.95;;;0.00;99.90;;;;;;5093232;28;20189;-77
2024/01/05 04:14:40;;;;;;;7.13;4.70;;;-0.10;99.90;;;;;;5104908;28;20313;-77
2024/01/05 04:17:06;;;;;;;4.90;4.50;;;0.00;99.90;;;;;;5113603;28;20570;-73
2024/01/05 04:19:31;;;;;;;4.93;4.53;;;0.10;99.90;;;;;;5113535;28;20882;-74
2024/01/05 04:21:57;;;;;;;4.83;4.43;;;0.20;99.90;;;;;;5113592;28;20175;-78
2024/01/05 04:24:23;;;;;;;5.00;4.70;;;0.30;99.90;;;;;;5113420;28;20161;-77
2024/01/05 04:26:48;;;;;;;6.50;4.33;;;0.40;99.90;;;;;;5109805;28;20689;-78
2024/01/05 04:29:14;;;;;;;4.40;4.10;;;0.50;99.90;;;;;;5104627;28;20193;-71
2024/01/05 04:31:40;;;;;;;6.10;3.90;;;0.60;99.90;;;;;;5092985;28;20284;-77
2024/01/05 04:34:05;;;;;;;4.73;4.27;;;0.60;99.90;;;;;;5093178;28;20399;-74
2024/01/05 04:36:31;;;;;;;4.30;3.87;;;0.60;99.90;;;;;;5092264;28;20646;-71
2024/01/05 04:38:57;;;;;;;8.33;4.57;;;0.70;99.90;;;;;;5092954;28;20192;-73
2024/01/05 04:41:23;;;;;;;4.27;3.97;;;0.60;99.90;;;;;;5093071;28;20177;-78
2024/01/05 04:43:50;;;;;;;5.90;4.70;;;0.60;99.90;;;;;;5109262;28;20162;-78
2024/01/05 04:46:17;;;;;;;6.70;4.67;;;0.70;99.90;;;;;;5092121;28;20399;-70
2024/01/05 04:48:43;;;;;;;4.03;3.60;;;0.60;99.90;;;;;;5092998;28;20481;-72
2024/01/05 04:51:09;;;;;;;4.97;4.47;;;0.70;99.90;;;;;;5092829;28;21026;-77
2024/01/05 04:53:35;;;;;;;4.07;3.77;;;0.70;99.90;;;;;;5092788;28;20177;-73
2024/01/05 04:56:01;;;;;;;7.80;4.70;;;0.60;99.90;;;;;;5081042;28;20889;-72
2024/01/05 04:58:27;;;;;;;4.57;4.17;;;0.60;99.90;;;;;;5072492;28;20279;-74
2024/01/05 05:00:53;;;;;;;4.80;4.50;;;0.60;99.90;;;;;;5106831;28;20410;-71
2024/01/05 05:03:19;;;;;;;4.70;4.30;;;0.70;99.90;;;;;;5113283;28;20204;-77
2024/01/05 05:05:45;;;;;;;5.70;5.17;;;0.60;99.90;;;;;;5112275;28;20438;-76
2024/01/05 05:08:13;;;;;;;7.23;4.50;;;0.60;99.90;;;;;;5111782;28;20197;-78
2024/01/05 05:10:39;;;;;;;5.03;4.60;;;0.60;99.90;;;;;;5111810;28;20811;-72
2024/01/05 05:13:05;;;;;;;4.60;4.20;;;0.70;99.90;;;;;;5114177;28;20460;-77
2024/01/05 05:15:31;;;;;;;4.10;3.80;;;0.60;99.90;;;;;;5114997;28;20832;-75
2024/01/05 05:17:56;;;;;;;5.50;5.00;;;0.60;99.90;;;;;;5114938;28;20235;-71
2024/01/05 05:20:22;;;;;;;5.30;4.90;;;0.50;99.90;;;;;;5115776;28;20310;-73
2024/01/05 05:22:48;;;;;;;4.97;4.47;;;0.60;99.90;;;;;;5115232;28;20252;-71
2024/01/05 05:25:14;;;;;;;6.33;4.53;;;0.60;99.90;;;;;;5094160;28;20412;-77
2024/01/05 05:27:39;;;;;;;4.30;4.00;;;0.60;99.90;;;;;;5096140;28;20650;-78
2024/01/05 05:30:06;;;;;;;4.53;4.23;;;0.60;99.90;;;;;;5109925;28;20651;-71
2024/01/05 05:32:32;;;;;;;5.07;4.67;;;0.60;99.90;;;;;;5116648;28;20192;-71
2024/01/05 05:34:58;;;;;;;4.70;4.33;;;0.60;99.90;;;;;;5113858;28;20418;-78
2024/01/05 05:37:24;;;;;;;4.60;4.20;;;0.60;99.90;;;;;;5116358;28;20975;-71
2024/01/05 05:39:49;;;;;;;4.07;3.77;;;0.70;99.90;;;;;;5116399;28;20399;-72
2024/01/05 05:42:15;;;;;;;4.83;4.37;;;0.70;99.90;;;;;;5116358;28;20215;-78
2024/01/05 05:44:41;;;;;;;4.30;4.00;;;0.70;99.90;;;;;;5114205;28;20201;-79
2024/01/05 05:47:07;;;;;;;4.67;3.67;;;0.70;99.90;;;;;;5116306;28;20303;-78
2024/01/05 05:49:32;;;;;;;3.93;3.63;;;0.70;99.90;;;;;;5116267;28;20177;-77
2024/01/05 05:51:58;;;;;;;4.13;3.80;;;0.60;99.90;;;;;;5104418;28;20612;-71
2024/01/05 05:54:24;;;;;;;3.63;3.40;;;0.60;99.90;;;;;;5095435;28;20175;-77
2024/01/05 05:56:49;;;;;;;4.00;3.70;;;0.60;99.90;;;;;;5093780;28;20256;-78
2024/01/05 05:59:15;;;;;;;4.50;4.07;;;0.60;99.90;;;;;;5101656;28;20675;-71
2024/01/05 06:01:41;;;;;;;3.90;3.70;;;0.70;99.90;;;;;;5116008;28;20237;-78
2024/01/05 06:04:07;;;;;;;4.50;4.20;;;0.70;99.90;;;;;;5115878;28;20250;-77
2024/01/05 06:06:34;;;;;;;4.73;4.33;;;0.70;99.90;;;;;;5114914;28;20169;-77
2024/01/05 06:09:00;;;;;;;3.77;3.47;;;0.80;99.90;;;;;;5115782;28;20480;-72
2024/01/05 06:11:28;;;;;;;4.47;4.03;;;0.70;99.90;;;;;;5115067;28;20784;-70
2024/01/05 06:13:56;;;;;;;3.97;3.60;;;0.70;99.90;;;;;;5114637;28;20891;-78
2024/01/05 06:16:22;;;;;;;8.53;3.87;;;0.70;99.90;;;;;;5114665;28;20453;-74
2024/01/05 06:18:48;;;;;;;5.27;4.30;;;0.70;99.90;;;;;;5114193;28;20418;-75
2024/01/05 06:21:14;;;;;;;4.60;4.30;;;0.70;99.90;;;;;;5094557;28;20177;-78
2024/01/05 06:23:40;;;;;;;3.80;3.53;;;0.70;99.90;;;;;;5094210;28;20169;-77
2024/01/05 06:26:06;;;;;;;4.30;4.10;;;0.70;99.90;;;;;;5094265;28;20880;-77
2024/01/05 06:28:31;;;;;;;3.30;3.10;;;0.60;99.90;;;;;;5095485;28;20318;-78
2024/01/05 06:30:57;;;;;;;4.17;3.77;;;0.70;99.90;;;;;;5115272;28;20212;-77
2024/01/05 06:33:23;;;;;;;4.10;3.70;;;0.70;99.90;;;;;;5115378;28;20243;-76
2024/01/05 06:35:48;;;;;;;4.43;4.00;;;0.60;99.90;;;;;;5114487;28;20161;-78
2024/01/05 06:38:14;;;;;;;3.20;3.00;;;0.60;99.90;;;;;;5114247;28;20280;-72
2024/01/05 06:40:40;;;;;;;4.33;4.03;;;0.60;99.90;;;;;;5113933;28;20663;-67
2024/01/05 06:43:06;;;;;;;8.27;4.57;;;0.60;99.90;;;;;;5114101;28;21121;-68
2024/01/05 06:45:31;;;;;;;3.73;3.50;;;0.50;99.90;;;;;;5113767;28;20633;-72
2024/01/05 06:47:57;;;;;;;5.10;3.60;;;0.50;99.90;;;;;;5105082;28;20280;-73
2024/01/05 06:50:24;;;;;;;3.70;3.50;;;0.50;99.90;;;;;;5094610;28;20239;-70
2024/01/05 06:52:50;;;;;;;5.88;3.42;;;0.50;99.90;;;;;;5094561;28;20409;-72
2024/01/05 06:55:16;;;;;;;4.27;3.97;;;0.40;99.90;;;;;;5093762;28;20169;-71
2024/01/05 06:57:41;;;;;;;6.30;3.93;;;0.40;99.90;;;;;;5093184;28;20427;-77
2024/01/05 07:00:10;;;;;;;4.47;3.97;;;0.50;99.90;;;;;;5109627;28;20252;-72
2024/01/05 07:02:36;;;;;;;4.40;4.10;;;0.60;99.90;;;;;;5113915;28;20157;-76
2024/01/05 07:05:04;;;;;;;11.68;7.43;;;0.60;99.90;;;;;;5113860;28;20517;-72
2024/01/05 07:07:32;;;;;;;4.13;3.83;;;0.60;99.90;;;;;;5114688;28;20241;-76
2024/01/05 07:09:58;;;;;;;5.90;5.50;;;0.60;99.90;;;;;;5114622;28;20202;-77
2024/01/05 07:12:27;;;;;;;5.90;4.77;;;0.40;99.90;;;;;;5114653;28;20200;-74
2024/01/05 07:14:52;;;;;;;6.20;5.70;;;0.40;99.90;;;;;;5111322;28;20410;-72
2024/01/05 07:17:18;;;;;;;5.60;4.70;;;0.40;99.90;;;;;;5114381;28;20405;-75
2024/01/05 07:19:43;;;;;;;4.60;4.30;;;0.30;99.90;;;;;;5114580;28;20157;-72
2024/01/05 07:22:09;;;;;;;4.93;4.53;;;0.40;99.90;;;;;;5112763;28;20171;-76
2024/01/05 07:24:38;;;;;;;4.97;4.57;;;0.50;99.90;;;;;;5112910;28;20180;-73
2024/01/05 07:27:09;;;;;;;5.93;4.80;;;0.50;99.90;;;;;;5092048;28;20180;-76
2024/01/05 07:29:35;;;;;;;6.40;4.37;;;0.50;99.90;;;;;;5093327;28;20410;-72
2024/01/05 07:32:01;;;;;;;4.93;4.43;;;0.50;99.90;;;;;;5093676;28;20577;-71
2024/01/05 07:34:27;;;;;;;4.77;4.47;;;0.40;99.90;;;;;;5093637;28;20240;-77
2024/01/05 07:36:53;;;;;;;6.73;5.67;;;0.40;99.90;;;;;;5092846;28;20987;-73
2024/01/05 07:39:19;;;;;;;5.00;3.70;;;0.40;99.90;;;;;;5093477;28;20189;-72
2024/01/05 07:41:45;;;;;;;7.47;5.20;;;0.40;99.90;;;;;;5093711;28;20412;-73
2024/01/05 07:44:11;;;;;;;5.20;4.67;;;0.40;99.90;;;;;;5093731;28;20449;-73
2024/01/05 07:46:43;;;;;;;6.93;6.27;;;0.40;99.90;;;;;;5091664;28;20431;-74
2024/01/05 07:49:09;;;;;;;5.83;5.33;;;0.30;99.90;;;;;;5093474;28;20264;-74
2024/01/05 07:51:35;;;;;;;7.13;5.97;;;0.30;99.90;;;;;;5093578;28;20952;-71
2024/01/05 07:54:01;;;;;;;5.23;4.77;;;0.30;99.90;;;;;;5095663;28;20264;-74
2024/01/05 07:56:26;;;;;;;5.03;4.63;;;0.30;99.90;;;;;;5110644;28;20510;-74
2024/01/05 07:58:52;;;;;;;5.80;5.30;;;0.20;99.90;;;;;;5092527;28;20189;-70
2024/01/05 08:01:19;;;;;;;6.03;5.53;;;0.20;1.00;;;;;;5093434;28;20202;-71
2024/01/05 08:03:45;;;;;;;8.57;7.55;;;0.30;1.00;;;;;;5093496;28;20176;-75
2024/01/05 08:06:18;;;;;;;6.07;5.47;;;0.30;1.00;;;;;;5092521;28;20173;-70
2024/01/05 08:08:49;;;;;;;5.22;4.82;;;0.30;1.00;;;;;;5093803;28;20508;-75
2024/01/05 08:11:16;;;;;;;5.90;4.50;;;0.30;1.00;;;;;;5101913;28;20200;-70
2024/01/05 08:13:42;;;;;;;3.92;3.63;;;0.40;1.00;;;;;;5113390;28;20157;-75
2024/01/05 08:16:08;;;;;;;5.05;4.65;;;0.30;1.00;;;;;;5112321;28;20556;-74
2024/01/05 08:18:35;;;;;;;4.67;4.27;;;0.40;1.00;;;;;;5113161;28;20196;-71
2024/01/05 08:21:01;;;;;;;8.90;4.67;;;0.40;1.00;;;;;;5113534;28;20407;-70
2024/01/05 08:23:26;;;;;;;8.90;5.13;;;0.30;1.00;;;;;;5112971;28;21770;-71
2024/01/05 08:25:52;;;;;;;7.87;5.60;;;0.40;1.00;;;;;;5104908;28;20753;-69
2024/01/05 08:28:18;;;;;;;6.63;5.90;;;0.40;1.00;;;;;;5091898;28;20193;-75
2024/01/05 08:30:44;;;;;;;6.43;5.90;;;0.40;1.00;;;;;;5091864;28;20201;-75
2024/01/05 08:33:10;;;;;;;5.17;4.67;;;0.50;1.00;;;;;;5093123;28;20415;-77
2024/01/05 08:35:36;;;;;;;6.43;4.53;;;0.50;1.00;;;;;;5092036;28;20192;-77
2024/01/05 08:38:04;;;;;;;5.00;4.30;;;0.40;1.00;;;;;;5092522;28;20863;-75
2024/01/05 08:40:30;;;;;;;4.00;3.80;;;0.40;1.00;;;;;;5093593;28;20182;-72
2024/01/05 08:42:57;;;;;;;5.33;4.90;;;0.30;1.00;;;;;;5093096;28;20165;-75
2024/01/05 08:45:22;;;;;;;5.43;4.93;;;0.30;99.90;;;;;;5090757;28;20411;-70
2024/01/05 08:47:48;;;;;;;6.50;4.60;;;0.30;99.90;;;;;;5094938;28;20200;-75
2024/01/05 08:50:17;;;;;;;5.47;4.97;;;0.30;99.90;;;;;;5096996;28;20170;-70
2024/01/05 08:52:43;;;;;;;4.87;4.47;;;0.30;99.90;;;;;;5096627;28;20199;-71
2024/01/05 08:55:09;;;;;;;5.43;5.05;;;0.30;99.90;;;;;;5095114;28;20395;-73
2024/01/05 08:57:35;;;;;;;4.93;4.63;;;0.30;99.90;;;;;;5095897;28;20201;-76
2024/01/05 09:00:01;;;;;;;4.37;3.97;;;0.40;99.90;;;;;;5096807;28;20786;-70
2024/01/05 09:02:27;;;;;;;7.75;5.88;;;0.40;99.90;;;;;;5095449;28;20446;-76
2024/01/05 09:04:53;;;;;;;4.03;3.73;;;0.30;99.90;;;;;;5095874;28;20181;-70
2024/01/05 09:07:19;;;;;;;4.10;3.70;;;0.40;99.90;;;;;;5096583;28;20207;-72
2024/01/05 09:09:45;;;;;;;6.20;4.97;;;0.40;99.90;;;;;;5109659;28;20176;-72
2024/01/05 09:12:11;;;;;;;4.72;4.38;;;0.40;99.90;;;;;;5098618;28;20566;-76
2024/01/05 09:14:37;;;;;;;3.90;3.63;;;0.20;99.90;;;;;;5094430;28;20169;-72
2024/01/05 09:17:05;;;;;;;6.03;4.73;;;0.30;99.90;;;;;;5096558;28;20169;-70
2024/01/05 09:19:32;;;;;;;4.65;3.75;;;0.30;99.90;;;;;;5096390;28;20452;-72
2024/01/05 09:21:59;;;;;;;4.57;4.13;;;0.30;99.90;;;;;;5096368;28;20212;-71
2024/01/05 09:24:26;;;;;;;3.53;3.33;;;0.30;99.90;;;;;;5096130;28;20162;-71
2024/01/05 09:26:52;;;;;;;3.35;3.00;;;0.30;99.90;;;;;;5082039;28;20650;-73
2024/01/05 09:29:17;;;;;;;6.50;2.97;;;0.30;99.90;;;;;;5076008;28;20204;-75
2024/01/05 09:31:46;;;;;;;4.33;3.30;;;0.30;99.90;;;;;;5075347;28;20585;-76
2024/01/05 09:34:12;;;;;;;4.13;3.80;;;0.30;99.90;;;;;;5075617;28;20174;-77
2024/01/05 09:36:41;;;;;;;3.10;2.90;;;0.30;99.90;;;;;;5074988;28;20396;-72
2024/01/05 09:39:07;;;;;;;4.18;3.97;;;0.30;99.90;;;;;;5075744;28;20224;-74
2024/01/05 09:41:33;;;;;;;3.60;3.40;;;0.40;99.90;;;;;;5095415;28;20662;-71
2024/01/05 09:44:01;;;;;;;6.82;4.35;;;0.40;99.90;;;;;;5095857;28;20661;-76
2024/01/05 09:46:28;;;;;;;3.30;3.10;;;0.40;99.90;;;;;;5095109;28;20169;-71
2024/01/05 09:49:03;;;;;;;3.47;3.17;;;0.40;99.90;;;;;;5095181;28;20268;-76
2024/01/05 09:51:32;;;;;;;3.90;3.60;;;0.40;99.90;;;;;;5095712;28;20181;-76
2024/01/05 09:53:58;;;;;;;4.22;3.75;;;0.40;99.90;;;;;;5096112;28;20399;-75
2024/01/05 09:56:26;;;;;;;3.23;3.03;;;0.30;99.90;;;;;;5093565;28;20660;-77
2024/01/05 09:58:54;;;;;;;4.43;3.45;;;0.30;99.90;;;;;;5095557;28;20412;-71
2024/01/05 10:01:27;;;;;;;3.50;3.30;;;0.30;99.90;;;;;;5095668;28;20260;-72
2024/01/05 10:04:07;;;;;;;3.58;3.38;;;0.20;99.90;;;;;;5095402;28;20240;-76
2024/01/05 10:06:33;;;;;;;3.70;3.50;;;0.10;99.90;;;;;;5094708;28;20660;-71
2024/01/05 10:08:59;;;;;;;3.57;3.37;;;0.20;99.90;;;;;;5094489;28;20197;-72
2024/01/05 10:11:32;;;;;;;12.00;4.88;;;0.20;99.90;;;;;;5095162;28;20236;-76
2024/01/05 10:14:00;;;;;;;4.28;3.97;;;0.30;99.90;;;;;;5095368;28;20215;-72
2024/01/05 10:16:34;;;;;;;3.28;3.00;;;0.20;99.90;;;;;;5094386;28;20227;-71
2024/01/05 10:19:10;;;;;;;6.50;3.20;;;0.30;99.90;;;;;;5095158;28;20205;-75
2024/01/05 10:21:36;;;;;;;2.97;2.78;;;0.30;99.90;;;;;;5097441;28;20183;-76
2024/01/05 10:24:03;;;;;;;3.40;3.10;;;0.20;99.90;;;;;;5100892;28;20264;-71
2024/01/05 10:26:32;;;;;;;3.70;2.47;;;0.30;99.90;;;;;;5074011;28;20166;-71
2024/01/05 10:29:12;;;;;;;3.65;3.45;;;0.20;99.90;;;;;;5074074;28;20197;-71
2024/01/05 10:31:38;;;;;;;2.90;2.80;;;0.10;99.90;;;;;;5074662;28;20201;-69
2024/01/05 10:34:03;;;;;;;3.63;3.33;;;0.10;99.90;;;;;;5074739;28;20514;-75
2024/01/05 10:36:29;;;;;;;3.57;3.33;;;0.20;99.90;;;;;;5073845;28;20173;-71
2024/01/05 10:38:56;;;;;;;4.30;3.90;;;0.20;99.90;;;;;;5086649;28;20215;-71
2024/01/05 10:41:22;;;;;;;5.53;3.50;;;0.30;99.90;;;;;;5115227;28;20161;-70
2024/01/05 10:43:49;;;;;;;3.10;2.90;;;0.30;99.90;;;;;;5113946;28;20176;-75
2024/01/05 10:46:18;;;;;;;4.38;4.07;;;0.20;99.90;;;;;;5113809;28;20234;-76
2024/01/05 10:48:44;;;;;;;5.20;3.70;;;0.20;99.90;;;;;;5113557;28;20189;-76
2024/01/05 10:51:22;;;;;;;3.67;3.40;;;0.30;99.90;;;;;;5099187;28;20250;-71
2024/01/05 10:53:49;;;;;;;5.65;4.30;;;0.20;99.90;;;;;;5093999;28;20179;-71
2024/01/05 10:56:18;;;;;;;3.30;3.10;;;0.30;99.90;;;;;;5093709;28;20169;-71
2024/01/05 10:58:47;;;;;;;3.40;3.20;;;0.20;99.90;;;;;;5094485;28;20580;-75
2024/01/05 11:01:16;;;;;;;3.35;3.10;;;0.20;99.90;;;;;;5094654;28;20166;-71
2024/01/05 11:03:44;;;;;;;3.35;3.05;;;0.20;99.90;;;;;;5093777;28;20165;-70
2024/01/05 11:06:12;;;;;;;3.92;3.08;;;0.30;99.90;;;;;;5093234;28;20657;-74
2024/01/05 11:08:44;;;;;;;3.53;3.30;;;0.30;99.90;;;;;;5081296;28;20253;-68
2024/01/05 11:11:10;;;;;;;6.65;3.75;;;0.30;99.90;;;;;;5114056;28;20258;-73
2024/01/05 11:13:54;;;;;;;2.45;2.35;;;0.30;99.90;;;;;;5114587;28;20171;-75
2024/01/05 11:16:32;;;;;;;3.45;3.15;;;0.30;99.90;;;;;;5113514;28;20168;-72
2024/01/05 11:19:22;;;;;;;4.10;3.80;;;0.40;99.90;;;;;;5100359;28;20251;-76
2024/01/05 11:22:04;;;;;;;4.13;3.50;;;0.50;99.90;;;;;;5093740;28;20679;-73
2024/01/05 11:24:31;;;;;;;3.20;2.90;;;0.50;99.90;;;;;;5100678;28;20191;-77
2024/01/05 11:26:56;;;;;;;3.83;3.53;;;0.50;99.90;;;;;;5114234;28;20183;-72
2024/01/05 11:29:48;;;;;;;3.70;3.40;;;0.60;99.90;;;;;;5114109;28;20185;-71
2024/01/05 11:32:46;;;;;;;3.40;3.20;;;0.60;99.90;;;;;;5114356;28;20374;-73
2024/01/05 11:35:19;;;;;;;3.53;3.30;;;0.50;99.90;;;;;;5101627;28;20207;-76
2024/01/05 11:37:46;;;;;;;5.27;4.13;;;0.50;99.90;;;;;;5114026;28;20215;-72
2024/01/05 11:40:32;;;;;;;3.72;3.53;;;0.50;99.90;;;;;;5111393;28;20447;-77
2024/01/05 11:42:59;;;;;;;4.50;3.90;;;0.60;99.90;;;;;;5114046;28;20176;-73
2024/01/05 11:45:43;;;;;;;4.35;3.95;;;0.40;99.90;;;;;;5112655;28;20705;-78
2024/01/05 11:48:09;;;;;;;4.07;3.78;;;0.40;99.90;;;;;;5079657;28;20200;-76
2024/01/05 11:50:38;;;;;;;4.53;4.10;;;0.40;99.90;;;;;;5113926;28;20254;-70
2024/01/05 11:53:18;;;;;;;3.83;3.63;;;0.40;99.90;;;;;;5113862;28;20395;-75
2024/01/05 11:55:58;;;;;;;4.20;3.80;;;0.40;99.90;;;;;;5111866;28;20165;-72
2024/01/05 11:58:31;;;;;;;6.32;3.90;;;0.40;99.90;;;;;;5113027;28;20204;-71
2024/01/05 12:00:59;;;;;;;4.63;3.97;;;0.50;99.90;;;;;;5113755;28;20176;-77
2024/01/05 12:03:25;;;;;;;4.30;3.90;;;0.50;99.90;;;;;;5112550;28;20518;-71
2024/01/05 12:05:56;;;;;;;4.50;4.10;;;0.50;99.90;;;;;;5112997;28;20395;-74
2024/01/05 12:08:22;;;;;;;3.35;3.15;;;0.50;99.90;;;;;;5111483;28;20438;-73
2024/01/05 12:11:03;;;;;;;7.25;3.83;;;0.50;99.90;;;;;;5113699;28;20196;-71
2024/01/05 12:13:30;;;;;;;8.40;3.53;;;0.40;99.90;;;;;;5113752;28;20495;-76
2024/01/05 12:16:02;;;;;;;3.90;3.55;;;0.40;99.90;;;;;;5110908;28;20202;-71
2024/01/05 12:18:32;;;;;;;5.03;3.95;;;0.40;99.90;;;;;;5113688;28;20268;-70
2024/01/05 12:21:00;;;;;;;4.35;4.05;;;0.40;99.90;;;;;;5113605;28;20168;-75
2024/01/05 12:23:28;;;;;;;5.20;4.00;;;0.50;99.90;;;;;;5116043;28;20182;-77
2024/01/05 12:26:00;;;;;;;9.00;4.60;;;0.60;99.90;;;;;;5115726;28;20593;-70
2024/01/05 12:28:37;;;;;;;3.73;3.43;;;0.60;99.90;;;;;;5117835;28;20471;-70
2024/01/05 12:31:04;;;;;;;5.45;3.80;;;0.50;99.90;;;;;;5117548;28;20533;-76
2024/01/05 12:33:32;;;;;;;6.38;4.05;;;0.50;99.90;;;;;;5116501;28;20198;-76
2024/01/05 12:35:58;;;;;;;8.38;4.40;;;0.40;99.90;;;;;;5116060;28;20230;-71
2024/01/05 12:38:28;;;;;;;3.80;3.50;;;0.40;99.90;;;;;;5116426;28;20193;-76
2024/01/05 12:41:12;;;;;;;5.35;3.90;;;0.40;99.90;;;;;;5116266;28;20632;-74
2024/01/05 12:43:43;;;;;;;5.07;4.68;;;0.40;99.90;;;;;;5117525;28;20177;-74
2024/01/05 12:46:09;;;;;;;4.50;4.10;;;0.40;99.90;;;;;;5088659;28;20188;-75
2024/01/05 12:48:35;;;;;;;4.85;4.45;;;0.30;99.90;;;;;;5076573;28;20236;-70
2024/01/05 12:51:11;;;;;;;4.70;3.90;;;0.30;99.90;;;;;;5076680;28;20226;-71
2024/01/05 12:53:37;;;;;;;4.63;4.28;;;0.40;99.90;;;;;;5079484;28;20483;-76
2024/01/05 12:56:10;;;;;;;4.93;4.27;;;0.40;99.90;;;;;;5115534;28;20267;-70